»·PEaware :: AAL624 KPHX-KSAN

AAL624 :: KPHX-KSAN

FLIGHT INFORMATION

Flight Status: Arrived
Operator:
American Airlines
More flights by this operator :: More flights under this callsign
Pilot: Max W. (2591)
Aircraft: BOEING 757-200
(B752)
More flights by this aircraft type
Origin: KPHX Phoenix Sky Harbor Intl
United States
Destination: KSAN San Diego Intl-Lindbergh
United States
More flights between these airports :: More routes between these airports
Route: FYRBD1 MOHAK J2 HOGGZ LUCKI1
File this flight plan on PilotEdge
Remarks:
Altitude:
(Current/Filed)
28,000ft
Speed:
(Current/Filed)
450kts
Departed: 17-Oct-19 03:58 PM
Arrived: 17-Oct-19 04:53 PM
Distance/Time
Traveled:
264nm/0:55
Distance/Time
To Go:
Arrived

Flight Plot

Page will automatically refresh every two minutes.

Flight plan parsing failed; only flown route is shown


Map Options




Map Legend


Flown Route
Filed Route
Departure Airport
Arrival Airport
Navaid (VOR, NDB)
Fix

Horizontal Profiles

Position Reports

Time Latitude Longitude Heading Altitude Ground
Speed
17-Oct-19 15:34 33.438351 -111.999160 205 1120ft 0kts
17-Oct-19 15:35 33.438351 -111.999160 205 1120ft 0kts
17-Oct-19 15:36 33.438351 -111.999160 205 1120ft 0kts
17-Oct-19 15:37 33.438351 -111.999160 205 1120ft 0kts
17-Oct-19 15:38 33.438351 -111.999160 205 1120ft 0kts
17-Oct-19 15:39 33.438351 -111.999160 205 1120ft 0kts
17-Oct-19 15:40 33.438351 -111.999160 205 1120ft 0kts
17-Oct-19 15:41 33.438351 -111.999160 205 1120ft 0kts
17-Oct-19 15:42 33.438351 -111.999160 205 1120ft 0kts
17-Oct-19 15:43 33.438351 -111.999160 205 1120ft 0kts
17-Oct-19 15:44 33.438351 -111.999160 205 1120ft 0kts
17-Oct-19 15:45 33.438351 -111.999160 205 1120ft 0kts
17-Oct-19 15:46 33.438463 -111.999097 205 1120ft 2kts
17-Oct-19 15:47 33.438648 -111.998499 300 1120ft 2kts
17-Oct-19 15:48 33.438275 -111.998270 2 1120ft 0kts
17-Oct-19 15:49 33.438276 -111.998270 2 1120ft 0kts
17-Oct-19 15:50 33.438276 -111.998270 2 1120ft 0kts
17-Oct-19 15:51 33.438604 -111.998256 2 1120ft 0kts
17-Oct-19 15:52 33.438604 -111.998256 2 1120ft 0kts
17-Oct-19 15:53 33.438604 -111.998256 2 1120ft 0kts
17-Oct-19 15:54 33.438981 -111.998050 65 1120ft 3kts
17-Oct-19 15:55 33.439635 -111.992284 6 1120ft 12kts
17-Oct-19 15:56 33.440830 -111.992868 271 1120ft 1kts
17-Oct-19 15:57 33.440860 -112.023003 269 1239ft 242kts
17-Oct-19 15:58 33.427654 -112.082594 249 6347ft 210kts
17-Oct-19 15:59 33.401715 -112.158955 234 10187ft 267kts
17-Oct-19 16:00 33.324423 -112.179803 159 14043ft 334kts
17-Oct-19 16:01 33.236365 -112.158976 202 17322ft 332kts
17-Oct-19 16:02 33.186005 -112.238079 239 20764ft 328kts
17-Oct-19 16:03 33.138431 -112.333754 236 22897ft 342kts
17-Oct-19 16:04 33.086749 -112.431194 236 25361ft 354kts
17-Oct-19 16:05 33.033332 -112.530955 237 27691ft 362kts
17-Oct-19 16:06 32.977300 -112.635248 237 27712ft 379kts
17-Oct-19 16:07 32.946297 -112.752574 257 27723ft 385kts
17-Oct-19 16:08 32.929030 -112.878158 257 27722ft 384kts
17-Oct-19 16:09 32.911964 -113.003321 258 27721ft 384kts
17-Oct-19 16:10 32.895456 -113.123866 258 27726ft 383kts
17-Oct-19 16:11 32.878217 -113.248783 259 27724ft 384kts
17-Oct-19 16:12 32.860799 -113.374024 259 27723ft 384kts
17-Oct-19 16:13 32.843278 -113.499061 259 27721ft 383kts
17-Oct-19 16:14 32.825680 -113.623697 259 27723ft 383kts
17-Oct-19 16:15 32.808301 -113.745997 258 27738ft 382kts
17-Oct-19 16:16 32.790453 -113.870719 258 27738ft 383kts
17-Oct-19 16:17 32.788592 -113.996256 267 27742ft 374kts
17-Oct-19 16:18 32.788285 -114.122331 266 27740ft 382kts
17-Oct-19 16:19 32.787281 -114.248445 266 27738ft 382kts
17-Oct-19 16:20 32.786067 -114.374844 266 27736ft 382kts
17-Oct-19 16:21 32.784720 -114.500853 266 27734ft 382kts
17-Oct-19 16:22 32.783245 -114.627021 266 27733ft 382kts
17-Oct-19 16:23 32.781690 -114.749506 266 27743ft 382kts
17-Oct-19 16:24 32.779965 -114.875624 266 27732ft 382kts
17-Oct-19 16:25 32.778111 -115.001530 266 27722ft 382kts
17-Oct-19 16:26 32.776112 -115.127944 267 27394ft 387kts
17-Oct-19 16:27 32.773983 -115.255644 268 25740ft 391kts
17-Oct-19 16:28 32.771679 -115.386120 269 24011ft 399kts
17-Oct-19 16:29 32.769238 -115.516362 269 22664ft 377kts
17-Oct-19 16:30 32.766833 -115.638166 269 21008ft 365kts
17-Oct-19 16:31 32.764425 -115.754622 269 19487ft 361kts
17-Oct-19 16:32 32.761876 -115.872559 268 17875ft 356kts
17-Oct-19 16:33 32.759248 -115.989055 269 16235ft 348kts
17-Oct-19 16:34 32.756598 -116.101417 269 14938ft 307kts
17-Oct-19 16:35 32.754437 -116.190267 269 14524ft 240kts
17-Oct-19 16:36 32.752501 -116.268344 269 13429ft 234kts
17-Oct-19 16:37 32.747453 -116.345179 266 12295ft 231kts
17-Oct-19 16:38 32.741589 -116.420551 265 11081ft 233kts
17-Oct-19 16:39 32.735591 -116.496812 265 10049ft 226kts
17-Oct-19 16:40 32.728550 -116.570678 265 9672ft 227kts
17-Oct-19 16:41 32.721422 -116.644255 265 8890ft 218kts
17-Oct-19 16:42 32.715955 -116.710828 265 8336ft 204kts
17-Oct-19 16:43 32.710636 -116.778459 265 7208ft 205kts
17-Oct-19 16:44 32.706534 -116.842328 267 6522ft 187kts
17-Oct-19 16:45 32.703752 -116.903379 267 5210ft 184kts
17-Oct-19 16:46 32.700889 -116.963856 265 3670ft 178kts
17-Oct-19 16:47 32.698114 -117.020032 263 2805ft 171kts
17-Oct-19 16:48 32.704597 -117.070275 281 2446ft 125kts
17-Oct-19 16:49 32.714185 -117.109955 281 1629ft 125kts
17-Oct-19 16:50 32.723766 -117.148994 282 843ft 116kts
17-Oct-19 16:51 32.733220 -117.188312 282 25ft 106kts
17-Oct-19 16:52 32.735393 -117.202255 188 22ft 17kts
17-Oct-19 16:53 32.734026 -117.201791 178 22ft 0kts
17-Oct-19 16:54 32.734026 -117.201791 178 22ft 0kts
17-Oct-19 16:55 32.734026 -117.201791 178 22ft 0kts

Navigation Log

Ident Type
Flight plan parsing failed, navigation log unavailable